createdAt,value
2022-11-08T00:01:11.369Z,11.45
2022-11-08T00:03:38.378Z,11.73
2022-11-08T00:06:23.927Z,10.30
2022-11-08T00:09:09.942Z,12.48
2022-11-08T00:11:55.773Z,12.85
2022-11-08T00:14:22.804Z,12.48
2022-11-08T00:16:49.851Z,12.45
2022-11-08T00:19:16.914Z,12.55
2022-11-08T00:21:43.917Z,12.95
2022-11-08T00:24:10.948Z,12.15
2022-11-08T00:26:37.961Z,11.55
2022-11-08T00:29:04.959Z,10.93
2022-11-08T00:31:31.984Z,11.43
2022-11-08T00:33:59.048Z,11.23
2022-11-08T00:36:26.078Z,10.98
2022-11-08T00:38:53.069Z,10.00
2022-11-08T00:41:20.266Z,10.68
2022-11-08T00:43:47.304Z,10.73
2022-11-08T00:46:14.334Z,10.95
2022-11-08T00:48:41.435Z,10.75
2022-11-08T00:51:08.730Z,11.20
2022-11-08T00:53:37.547Z,10.90
2022-11-08T00:56:05.341Z,11.27
2022-11-08T00:58:32.345Z,10.98
2022-11-08T01:00:59.477Z,12.15
2022-11-08T01:03:26.556Z,12.02
2022-11-08T01:05:54.074Z,11.02
2022-11-08T01:08:21.959Z,13.32
2022-11-08T01:10:49.864Z,11.38
2022-11-08T01:13:16.910Z,12.18
2022-11-08T01:15:45.309Z,11.23
2022-11-08T01:18:12.638Z,11.35
2022-11-08T01:20:40.199Z,12.88
2022-11-08T01:23:07.257Z,12.65
2022-11-08T01:25:37.565Z,12.48
2022-11-08T01:28:04.845Z,13.75
2022-11-08T01:30:32.047Z,14.23
2022-11-08T01:32:59.068Z,13.95
2022-11-08T01:35:26.084Z,13.15
2022-11-08T01:37:53.152Z,13.60
2022-11-08T01:40:20.161Z,13.32
2022-11-08T01:42:47.206Z,13.55
2022-11-08T01:45:14.218Z,13.27
2022-11-08T01:47:41.283Z,13.20
2022-11-08T01:50:12.076Z,13.95
2022-11-08T01:52:49.354Z,12.90
2022-11-08T01:55:17.559Z,12.43
2022-11-08T01:57:47.275Z,12.43
2022-11-08T02:00:14.526Z,12.97
2022-11-08T02:02:42.381Z,12.80
2022-11-08T02:05:36.294Z,12.75
2022-11-08T02:08:15.875Z,12.13
2022-11-08T02:10:47.561Z,13.33
2022-11-08T02:13:16.073Z,13.48
2022-11-08T02:15:43.343Z,13.25
2022-11-08T02:18:10.506Z,13.30
2022-11-08T02:20:37.535Z,12.93
2022-11-08T02:23:13.770Z,12.45
2022-11-08T02:25:40.810Z,12.65
2022-11-08T02:28:07.826Z,13.65
2022-11-08T02:30:35.169Z,12.98
2022-11-08T02:33:14.105Z,14.20
2022-11-08T02:35:41.131Z,14.90
2022-11-08T02:38:08.174Z,15.00
2022-11-08T02:40:51.226Z,15.85
2022-11-08T02:43:18.408Z,15.45
2022-11-08T02:45:45.571Z,16.10
2022-11-08T02:48:12.929Z,14.90
2022-11-08T02:50:39.953Z,16.23
2022-11-08T02:53:07.080Z,14.98
2022-11-08T02:55:34.277Z,15.07
2022-11-08T02:58:01.485Z,15.25
2022-11-08T03:00:28.496Z,15.38
2022-11-08T03:02:58.683Z,15.60
2022-11-08T03:05:26.023Z,15.13
2022-11-08T03:07:53.677Z,14.35
2022-11-08T03:10:20.820Z,15.13
2022-11-08T03:12:47.862Z,13.50
2022-11-08T03:15:15.174Z,13.23
2022-11-08T03:17:42.190Z,12.98
2022-11-08T03:20:09.439Z,12.80
2022-11-08T03:22:36.428Z,14.82
2022-11-08T03:25:03.443Z,14.15
2022-11-08T03:27:33.558Z,13.95
2022-11-08T03:30:00.866Z,13.32
2022-11-08T03:32:27.862Z,13.93
2022-11-08T03:34:54.886Z,15.82
2022-11-08T03:37:23.059Z,16.00
2022-11-08T03:39:50.102Z,14.98
2022-11-08T03:42:17.097Z,14.00
2022-11-08T03:44:44.104Z,15.13
2022-11-08T03:47:11.117Z,14.68
2022-11-08T03:49:38.174Z,13.93
2022-11-08T03:52:05.233Z,14.88
2022-11-08T03:54:32.222Z,15.82
2022-11-08T03:56:59.255Z,14.85
2022-11-08T03:59:26.291Z,16.23
2022-11-08T04:01:53.450Z,15.77
2022-11-08T04:04:20.591Z,16.10
2022-11-08T04:06:47.587Z,15.63
2022-11-08T04:09:18.996Z,16.05
2022-11-08T04:12:07.047Z,16.40
2022-11-08T04:14:52.563Z,15.75
2022-11-08T04:17:19.631Z,17.45
2022-11-08T04:20:05.241Z,16.63
2022-11-08T04:22:32.240Z,16.63
2022-11-08T04:24:59.291Z,16.50
2022-11-08T04:27:26.287Z,17.05
2022-11-08T04:29:53.294Z,16.80
2022-11-08T04:32:20.360Z,16.70
2022-11-08T04:34:47.407Z,17.05
2022-11-08T04:37:14.421Z,16.35
2022-11-08T04:39:41.484Z,19.38
2022-11-08T04:42:08.546Z,17.90
2022-11-08T04:44:35.569Z,20.38
2022-11-08T04:47:02.574Z,18.98
2022-11-08T04:49:29.606Z,19.92
2022-11-08T04:51:56.625Z,19.80
2022-11-08T04:54:23.626Z,18.55
2022-11-08T04:56:50.654Z,18.65
2022-11-08T04:59:17.686Z,19.38
2022-11-08T05:01:44.751Z,18.08
2022-11-08T05:04:11.910Z,19.10
2022-11-08T05:06:38.917Z,18.23
2022-11-08T05:09:05.973Z,19.90
2022-11-08T05:11:33.105Z,17.08
2022-11-08T05:14:00.104Z,16.38
2022-11-08T05:16:28.295Z,15.52
2022-11-08T05:18:55.423Z,15.57
2022-11-08T05:21:40.890Z,15.82
2022-11-08T05:24:08.779Z,15.73
2022-11-08T05:26:36.349Z,15.15
2022-11-08T05:29:03.501Z,15.18
2022-11-08T05:31:30.514Z,15.30
2022-11-08T05:33:57.676Z,13.98
2022-11-08T05:36:24.699Z,17.48
2022-11-08T05:38:51.744Z,31.42
2022-11-08T05:41:19.331Z,18.58
2022-11-08T05:43:46.711Z,13.98
2022-11-08T05:46:13.899Z,14.43
2022-11-08T05:48:42.247Z,12.90
2022-11-08T05:51:09.366Z,15.05
2022-11-08T05:53:36.424Z,15.45
2022-11-08T05:56:03.612Z,14.05
2022-11-08T05:58:30.830Z,14.23
2022-11-08T06:01:01.521Z,16.02
2022-11-08T06:03:29.235Z,17.25
2022-11-08T06:05:56.698Z,18.67
2022-11-08T06:08:23.738Z,17.05
2022-11-08T06:10:50.737Z,16.23
2022-11-08T06:13:18.884Z,18.33
2022-11-08T06:15:45.886Z,17.35
2022-11-08T06:18:12.912Z,18.70
2022-11-08T06:20:39.968Z,17.58
2022-11-08T06:23:07.047Z,21.40
2022-11-08T06:25:34.273Z,19.85
2022-11-08T06:28:01.354Z,20.10
2022-11-08T06:30:28.391Z,21.42
2022-11-08T06:32:55.392Z,19.65
2022-11-08T06:35:22.607Z,18.70
2022-11-08T06:37:49.684Z,20.55
2022-11-08T06:40:16.709Z,19.35
2022-11-08T06:42:43.746Z,17.38
2022-11-08T06:45:10.903Z,18.23
2022-11-08T06:47:37.910Z,17.30
2022-11-08T06:50:05.175Z,14.95
2022-11-08T06:52:32.206Z,14.10
2022-11-08T06:54:59.206Z,15.13
2022-11-08T06:57:26.243Z,15.10
2022-11-08T06:59:53.230Z,14.80
2022-11-08T07:02:20.287Z,13.45
2022-11-08T07:04:47.473Z,14.82
2022-11-08T07:07:14.497Z,15.30
2022-11-08T07:09:41.554Z,17.58
2022-11-08T07:12:09.798Z,21.30
2022-11-08T07:14:36.853Z,21.10
2022-11-08T07:17:04.327Z,18.33
2022-11-08T07:19:31.410Z,15.73
2022-11-08T07:21:58.421Z,14.60
2022-11-08T07:24:25.445Z,15.13
2022-11-08T07:26:52.480Z,16.13
2022-11-08T07:29:19.560Z,15.75
2022-11-08T07:31:47.131Z,17.40
2022-11-08T07:34:14.241Z,15.32
2022-11-08T07:36:41.691Z,14.80
2022-11-08T07:39:08.813Z,15.10
2022-11-08T07:41:35.886Z,14.45
2022-11-08T07:44:02.990Z,12.00
2022-11-08T07:46:30.012Z,12.45
2022-11-08T07:48:57.079Z,12.85
2022-11-08T07:51:24.166Z,9.27
2022-11-08T07:53:51.184Z,10.23
2022-11-08T07:56:18.486Z,10.70
2022-11-08T07:58:45.647Z,8.85
2022-11-08T08:01:12.887Z,8.32
2022-11-08T08:03:40.062Z,9.55
2022-11-08T08:06:07.153Z,8.52
2022-11-08T08:08:34.255Z,8.18
2022-11-08T08:11:01.364Z,7.50
2022-11-08T08:13:28.560Z,7.53
2022-11-08T08:15:58.448Z,7.53
2022-11-08T08:18:25.551Z,5.75
2022-11-08T08:20:52.633Z,4.78
2022-11-08T08:23:20.048Z,4.28
2022-11-08T08:25:47.340Z,4.22
2022-11-08T08:28:14.430Z,4.22
2022-11-08T08:30:41.643Z,3.70
2022-11-08T08:35:57.158Z,2.78
2022-11-08T08:38:24.166Z,2.38
2022-11-08T08:40:51.673Z,2.65
2022-11-08T08:43:19.146Z,2.58
2022-11-08T08:45:46.789Z,2.65
2022-11-08T08:48:13.851Z,3.60
2022-11-08T08:50:40.990Z,4.72
2022-11-08T08:53:08.118Z,3.75
2022-11-08T08:55:35.473Z,4.30
2022-11-08T08:58:02.668Z,2.72
2022-11-08T09:03:17.332Z,3.08
2022-11-08T09:05:46.554Z,2.78
2022-11-08T09:08:14.553Z,2.30
2022-11-08T09:10:41.833Z,2.80
2022-11-08T09:13:09.037Z,2.78
2022-11-08T09:15:36.145Z,3.25
2022-11-08T09:18:03.306Z,2.95
2022-11-08T09:20:30.479Z,2.83
2022-11-08T09:23:01.911Z,2.60
2022-11-08T09:25:29.026Z,2.70
2022-11-08T09:27:56.133Z,2.90
2022-11-08T09:30:23.277Z,2.70
2022-11-08T09:33:02.028Z,2.88
2022-11-08T09:35:29.904Z,2.95
2022-11-08T09:37:57.131Z,2.42
2022-11-08T09:40:48.977Z,2.72
2022-11-08T09:43:26.597Z,3.35
2022-11-08T09:45:56.094Z,2.78
2022-11-08T09:48:33.023Z,3.10
2022-11-08T09:51:00.264Z,2.92
2022-11-08T09:53:35.405Z,2.50
2022-11-08T09:56:03.636Z,2.72
2022-11-08T09:58:46.035Z,2.38
2022-11-08T10:01:13.361Z,2.50
2022-11-08T10:03:40.625Z,2.53
2022-11-08T10:06:26.047Z,2.50
2022-11-08T10:09:00.008Z,2.53
2022-11-08T10:11:27.660Z,2.20
2022-11-08T10:14:13.229Z,2.38
2022-11-08T10:16:44.970Z,1.95
2022-11-08T10:19:15.784Z,2.03
2022-11-08T10:21:48.682Z,1.83
2022-11-08T10:24:16.201Z,2.13
2022-11-08T10:26:45.694Z,2.78
2022-11-08T10:29:15.739Z,2.30
2022-11-08T10:31:42.775Z,1.35
2022-11-08T10:34:16.585Z,1.80
2022-11-08T10:36:48.315Z,2.28
2022-11-08T10:39:21.133Z,1.83
2022-11-08T10:41:49.505Z,2.00
2022-11-08T10:44:17.771Z,2.20
2022-11-08T10:46:45.519Z,1.85
2022-11-08T10:49:15.671Z,1.60
2022-11-08T10:51:43.862Z,3.35
2022-11-08T10:54:13.432Z,2.10
2022-11-08T10:56:54.116Z,1.67
2022-11-08T10:59:33.804Z,1.90
2022-11-08T11:02:01.027Z,1.75
2022-11-08T11:04:29.169Z,1.95
2022-11-08T11:06:56.326Z,2.13
2022-11-08T11:09:23.461Z,1.80
2022-11-08T11:11:56.821Z,2.20
2022-11-08T11:14:23.900Z,2.22
2022-11-08T11:17:07.499Z,2.10
2022-11-08T11:19:34.579Z,1.85
2022-11-08T11:22:01.580Z,2.13
2022-11-08T11:24:28.618Z,1.77
2022-11-08T11:26:58.771Z,1.88
2022-11-08T11:29:35.537Z,1.92
2022-11-08T11:32:20.926Z,1.95
2022-11-08T11:35:08.271Z,1.88
2022-11-08T11:37:36.999Z,1.90
2022-11-08T11:40:04.081Z,1.95
2022-11-08T11:42:47.112Z,2.00
2022-11-08T11:45:22.153Z,1.75
2022-11-08T11:47:53.378Z,1.70
2022-11-08T11:50:22.194Z,1.90
2022-11-08T11:52:49.266Z,2.20
2022-11-08T11:55:16.435Z,2.45
2022-11-08T11:57:47.957Z,2.40
2022-11-08T12:00:15.414Z,2.83
2022-11-08T12:03:01.601Z,2.55
2022-11-08T12:05:28.682Z,2.60
2022-11-08T12:08:02.933Z,3.00
2022-11-08T12:10:39.919Z,2.78
2022-11-08T12:13:18.543Z,2.85
2022-11-08T12:15:57.830Z,3.17
2022-11-08T12:18:44.468Z,2.75
2022-11-08T12:21:15.810Z,2.80
2022-11-08T12:23:55.096Z,2.88
2022-11-08T12:26:34.056Z,2.90
2022-11-08T12:29:01.168Z,3.10
2022-11-08T12:31:33.691Z,2.90
2022-11-08T12:34:18.917Z,2.85
2022-11-08T12:36:53.443Z,3.45
2022-11-08T12:39:24.122Z,7.80
2022-11-08T12:42:00.617Z,2.85
2022-11-08T12:44:36.977Z,3.00
2022-11-08T12:47:03.967Z,2.88
2022-11-08T12:49:37.308Z,3.03
2022-11-08T12:52:04.308Z,2.70
2022-11-08T12:54:36.364Z,2.65
2022-11-08T12:57:04.291Z,2.90
2022-11-08T12:59:31.310Z,3.20
2022-11-08T13:01:58.321Z,2.80
2022-11-08T13:04:46.037Z,3.15
2022-11-08T13:07:22.239Z,3.55
2022-11-08T13:10:12.372Z,2.78
2022-11-08T13:12:48.815Z,3.03
2022-11-08T13:15:16.918Z,2.97
2022-11-08T13:17:49.075Z,2.63
2022-11-08T13:20:42.434Z,3.00
2022-11-08T13:23:12.707Z,2.83
2022-11-08T13:25:39.890Z,2.75
2022-11-08T13:28:25.505Z,2.60
2022-11-08T13:31:00.399Z,2.63
2022-11-08T13:33:30.555Z,3.22
2022-11-08T13:36:01.191Z,3.00
2022-11-08T13:38:31.304Z,2.60
2022-11-08T13:41:04.360Z,2.30
2022-11-08T13:43:31.960Z,2.60
2022-11-08T13:46:17.858Z,3.13
2022-11-08T13:48:44.862Z,2.40
2022-11-08T13:51:27.926Z,2.60
2022-11-08T13:53:58.966Z,2.97
2022-11-08T13:56:27.316Z,2.53
2022-11-08T13:58:54.475Z,2.75
2022-11-08T14:01:21.583Z,2.50
2022-11-08T14:03:48.639Z,2.83
2022-11-08T14:06:24.636Z,2.45
2022-11-08T14:08:58.163Z,2.83
2022-11-08T14:11:28.637Z,2.63
2022-11-08T14:16:23.744Z,2.63
2022-11-08T14:18:51.074Z,2.50
2022-11-08T14:21:18.971Z,2.53
2022-11-08T14:23:47.135Z,3.53
2022-11-08T14:26:14.162Z,3.80
2022-11-08T14:28:41.902Z,4.30
2022-11-08T14:31:22.526Z,4.00
2022-11-08T14:33:49.618Z,3.08
2022-11-08T14:36:17.095Z,3.22
2022-11-08T14:39:07.385Z,3.72
2022-11-08T14:41:34.458Z,3.47
2022-11-08T14:44:02.089Z,3.67
2022-11-08T14:46:30.202Z,3.15
2022-11-08T14:48:57.275Z,2.97
2022-11-08T14:51:27.410Z,3.60
2022-11-08T14:53:54.875Z,3.22
2022-11-08T14:56:22.768Z,3.13
2022-11-08T14:58:51.016Z,3.45
2022-11-08T15:01:19.866Z,3.47
2022-11-08T15:03:57.031Z,3.63
2022-11-08T15:06:30.978Z,3.03
2022-11-08T15:08:58.087Z,3.47
2022-11-08T15:11:31.963Z,3.45
2022-11-08T15:14:00.069Z,3.30
2022-11-08T15:16:27.178Z,3.00
2022-11-08T15:18:54.819Z,3.58
2022-11-08T15:21:24.842Z,3.53
2022-11-08T15:23:55.189Z,2.95
2022-11-08T15:26:22.276Z,3.35
2022-11-08T15:29:08.039Z,2.80
2022-11-08T15:31:36.242Z,3.25
2022-11-08T15:34:03.294Z,3.20
2022-11-08T15:36:34.526Z,3.35
2022-11-08T15:39:01.536Z,3.42
2022-11-08T15:41:38.289Z,3.92
2022-11-08T15:44:22.381Z,2.88
2022-11-08T15:46:49.530Z,3.22
2022-11-08T15:49:19.737Z,3.40
2022-11-08T15:51:47.440Z,3.22
2022-11-08T15:54:14.531Z,3.05
2022-11-08T15:56:41.698Z,2.72
2022-11-08T15:59:44.485Z,3.55
2022-11-08T16:02:13.213Z,3.72
2022-11-08T16:04:40.226Z,3.53
2022-11-08T16:07:07.291Z,3.05
2022-11-08T16:09:34.365Z,2.97
2022-11-08T16:12:02.619Z,3.83
2022-11-08T16:14:29.615Z,3.08
2022-11-08T16:16:56.666Z,3.13
2022-11-08T16:19:24.773Z,3.13
2022-11-08T16:21:52.109Z,5.47
2022-11-08T16:24:19.141Z,3.67
2022-11-08T16:26:46.192Z,4.18
2022-11-08T16:29:23.601Z,3.97
2022-11-08T16:31:51.009Z,3.22
2022-11-08T16:34:18.081Z,3.55
2022-11-08T16:36:45.393Z,4.05
2022-11-08T16:39:14.762Z,3.30
2022-11-08T16:41:42.972Z,3.58
2022-11-08T16:44:10.646Z,3.17
2022-11-08T16:46:37.761Z,3.33
2022-11-08T16:49:05.142Z,3.70
2022-11-08T16:51:32.149Z,3.58
2022-11-08T16:53:59.150Z,3.78
2022-11-08T16:56:26.169Z,3.20
2022-11-08T16:58:53.192Z,3.38
2022-11-08T17:01:21.134Z,3.40
2022-11-08T17:03:48.211Z,3.35
2022-11-08T17:06:35.741Z,4.03
2022-11-08T17:09:02.806Z,4.28
2022-11-08T17:11:29.859Z,3.67
2022-11-08T17:14:17.303Z,3.95
2022-11-08T17:16:44.375Z,4.30
2022-11-08T17:19:11.414Z,5.00
2022-11-08T17:21:44.789Z,6.22
2022-11-08T17:24:17.010Z,4.90
2022-11-08T17:26:48.160Z,5.03
2022-11-08T17:29:15.470Z,4.90
2022-11-08T17:31:42.626Z,5.97
2022-11-08T17:34:10.165Z,7.35
2022-11-08T17:36:37.414Z,7.10
2022-11-08T17:39:06.390Z,5.30
2022-11-08T17:41:33.688Z,6.05
2022-11-08T17:44:01.116Z,4.78
2022-11-08T17:46:28.331Z,4.43
2022-11-08T17:48:55.702Z,4.45
2022-11-08T17:51:23.142Z,5.00
2022-11-08T17:53:50.342Z,4.53
2022-11-08T17:56:18.145Z,4.90
2022-11-08T17:58:45.242Z,4.88
2022-11-08T18:01:12.437Z,4.68
2022-11-08T18:03:39.697Z,7.22
2022-11-08T18:06:07.598Z,4.97
2022-11-08T18:08:35.334Z,4.75
2022-11-08T18:11:02.496Z,4.43
2022-11-08T18:13:29.666Z,5.93
2022-11-08T18:15:56.774Z,5.43
2022-11-08T18:18:23.928Z,5.20
2022-11-08T18:20:54.798Z,5.20
2022-11-08T18:23:22.284Z,4.90
2022-11-08T18:25:49.843Z,5.00
2022-11-08T18:28:17.089Z,3.88
2022-11-08T18:30:47.842Z,4.10
2022-11-08T18:33:15.761Z,3.85
2022-11-08T18:35:43.446Z,3.35
2022-11-08T18:38:10.859Z,4.10
2022-11-08T18:40:39.020Z,3.67
2022-11-08T18:43:06.544Z,3.63
2022-11-08T18:45:33.600Z,4.53
2022-11-08T18:48:00.770Z,4.45
2022-11-08T18:50:27.868Z,4.68
2022-11-08T18:52:55.932Z,4.10
2022-11-08T18:55:25.570Z,3.80
2022-11-08T18:57:53.395Z,3.53
2022-11-08T19:00:20.733Z,2.90
2022-11-08T19:02:47.787Z,3.45
2022-11-08T19:05:14.786Z,2.85
2022-11-08T19:07:41.884Z,2.97
2022-11-08T19:10:09.275Z,2.58
2022-11-08T19:12:36.287Z,2.80
2022-11-08T19:15:03.430Z,2.60
2022-11-08T19:17:31.784Z,2.55
2022-11-08T19:19:58.803Z,2.65
2022-11-08T19:22:26.775Z,3.30
2022-11-08T19:24:53.789Z,2.83
2022-11-08T19:27:20.852Z,2.92
2022-11-08T19:29:47.893Z,2.60
2022-11-08T19:32:14.947Z,2.85
2022-11-08T19:34:42.041Z,2.70
2022-11-08T19:37:09.079Z,3.50
2022-11-08T19:39:36.132Z,2.70
2022-11-08T19:42:03.130Z,2.97
2022-11-08T19:44:31.725Z,3.00
2022-11-08T19:46:58.768Z,3.10
2022-11-08T19:49:28.007Z,2.70
2022-11-08T19:51:55.106Z,2.50
2022-11-08T19:54:22.174Z,2.58
2022-11-08T19:57:06.027Z,2.53
2022-11-08T19:59:33.460Z,3.28
2022-11-08T20:02:00.657Z,3.45
2022-11-08T20:04:27.795Z,3.15
2022-11-08T20:06:54.890Z,2.45
2022-11-08T20:09:27.398Z,2.53
2022-11-08T20:11:57.248Z,2.70
2022-11-08T20:14:24.698Z,2.50
2022-11-08T20:16:53.722Z,2.85
2022-11-08T20:19:20.953Z,4.07
2022-11-08T20:21:48.158Z,3.72
2022-11-08T20:24:15.288Z,3.83
2022-11-08T20:26:42.414Z,2.67
2022-11-08T20:29:09.459Z,3.38
2022-11-08T20:31:36.709Z,2.80
2022-11-08T20:34:05.914Z,3.40
2022-11-08T20:36:35.292Z,2.95
2022-11-08T20:39:06.845Z,2.80
2022-11-08T20:41:36.821Z,2.88
2022-11-08T20:44:03.956Z,2.55
2022-11-08T20:46:32.332Z,2.67
2022-11-08T20:49:01.095Z,2.67
2022-11-08T20:51:28.646Z,3.00
2022-11-08T20:53:56.030Z,2.60
2022-11-08T20:56:23.305Z,2.97
2022-11-08T20:58:50.668Z,3.03
2022-11-08T21:01:18.698Z,3.00
2022-11-08T21:03:45.927Z,2.47
2022-11-08T21:06:13.865Z,2.78
2022-11-08T21:11:30.026Z,2.60
2022-11-08T21:13:57.098Z,3.20
2022-11-08T21:16:42.269Z,3.28
2022-11-08T21:19:11.210Z,2.85
2022-11-08T21:21:38.419Z,3.08
2022-11-08T21:24:05.565Z,2.60
2022-11-08T21:26:36.785Z,2.47
2022-11-08T21:29:04.502Z,2.90
2022-11-08T21:31:31.505Z,2.80
2022-11-08T21:33:58.611Z,2.58
2022-11-08T21:36:26.912Z,2.67
2022-11-08T21:38:54.209Z,2.63
2022-11-08T21:41:21.324Z,3.00
2022-11-08T21:43:48.427Z,2.80
2022-11-08T21:46:22.376Z,3.00
2022-11-08T21:48:53.359Z,2.50
2022-11-08T21:51:20.424Z,2.50
2022-11-08T21:53:54.023Z,2.80
2022-11-08T21:56:22.555Z,2.70
2022-11-08T21:58:49.581Z,2.80
2022-11-08T22:01:16.773Z,2.83
2022-11-08T22:03:44.049Z,2.90
2022-11-08T22:06:11.087Z,2.90
2022-11-08T22:08:38.102Z,2.78
2022-11-08T22:11:05.213Z,2.55
2022-11-08T22:13:32.239Z,3.03
2022-11-08T22:15:59.269Z,3.03
2022-11-08T22:18:50.208Z,2.58
2022-11-08T22:21:31.906Z,2.72
2022-11-08T22:23:58.924Z,2.88
2022-11-08T22:26:25.957Z,2.97
2022-11-08T22:28:53.028Z,3.10
2022-11-08T22:31:20.042Z,3.10
2022-11-08T22:33:47.079Z,3.45
2022-11-08T22:36:14.513Z,3.10
2022-11-08T22:38:41.595Z,3.17
2022-11-08T22:41:08.722Z,2.95
2022-11-08T22:43:35.844Z,3.55
2022-11-08T22:46:02.968Z,2.97
2022-11-08T22:48:30.007Z,3.17
2022-11-08T22:50:57.498Z,3.25
2022-11-08T22:53:24.532Z,2.83
2022-11-08T22:55:51.634Z,3.05
2022-11-08T22:58:18.675Z,3.25
2022-11-08T23:00:45.811Z,3.30
2022-11-08T23:03:13.013Z,3.38
2022-11-08T23:05:40.011Z,3.22
2022-11-08T23:08:07.113Z,3.95
2022-11-08T23:10:54.113Z,3.92
2022-11-08T23:13:39.696Z,4.00
2022-11-08T23:16:12.699Z,3.78
2022-11-08T23:18:59.681Z,4.22
2022-11-08T23:21:45.314Z,3.83
2022-11-08T23:24:21.490Z,3.72
2022-11-08T23:27:07.045Z,3.55
2022-11-08T23:29:52.768Z,3.65
2022-11-08T23:32:19.784Z,3.95
2022-11-08T23:34:46.786Z,3.75
2022-11-08T23:37:13.973Z,4.22
2022-11-08T23:39:59.785Z,3.90
2022-11-08T23:42:45.569Z,4.30
2022-11-08T23:45:12.578Z,4.05
2022-11-08T23:47:39.584Z,3.95
2022-11-08T23:50:06.872Z,4.03
2022-11-08T23:52:34.136Z,3.70
2022-11-08T23:55:01.239Z,4.07
2022-11-08T23:57:28.244Z,3.97
2022-11-08T23:59:55.247Z,4.75
